createdAt,value
2023-02-02T00:00:59.628Z,6.03
2023-02-02T00:03:26.794Z,3.80
2023-02-02T00:05:54.262Z,8.60
2023-02-02T00:08:21.844Z,3.07
2023-02-02T00:10:50.550Z,3.43
2023-02-02T00:13:18.147Z,2.80
2023-02-02T00:15:45.370Z,3.47
2023-02-02T00:18:12.514Z,3.73
2023-02-02T00:20:39.813Z,5.90
2023-02-02T00:23:06.998Z,4.43
2023-02-02T00:25:34.198Z,3.43
2023-02-02T00:28:01.457Z,5.30
2023-02-02T00:30:28.649Z,8.53
2023-02-02T00:32:55.899Z,3.30
2023-02-02T00:35:23.344Z,6.97
2023-02-02T00:37:50.624Z,3.50
2023-02-02T00:40:17.918Z,2.53
2023-02-02T00:42:49.115Z,7.33
2023-02-02T00:45:16.343Z,5.83
2023-02-02T00:47:44.224Z,4.43
2023-02-02T00:50:12.189Z,4.77
2023-02-02T00:52:39.416Z,2.43
2023-02-02T00:55:06.921Z,4.27
2023-02-02T00:57:34.137Z,5.17
2023-02-02T01:00:01.384Z,2.80
2023-02-02T01:02:28.577Z,4.03
2023-02-02T01:04:55.813Z,3.43
2023-02-02T01:07:22.941Z,2.90
2023-02-02T01:09:50.099Z,3.10
2023-02-02T01:12:17.276Z,2.20
2023-02-02T01:14:44.427Z,2.30
2023-02-02T01:17:11.631Z,2.47
2023-02-02T01:19:38.849Z,2.87
2023-02-02T01:22:06.046Z,6.17
2023-02-02T01:24:33.211Z,4.93
2023-02-02T01:27:00.577Z,10.13
2023-02-02T01:29:27.749Z,4.80
2023-02-02T01:31:54.934Z,2.40
2023-02-02T01:34:22.202Z,1.63
2023-02-02T01:36:49.387Z,1.50
2023-02-02T01:39:16.552Z,2.13
2023-02-02T01:41:43.789Z,2.30
2023-02-02T01:44:29.788Z,1.53
2023-02-02T01:46:56.979Z,1.10
2023-02-02T01:49:24.175Z,1.47
2023-02-02T01:51:52.502Z,1.40
2023-02-02T01:54:24.424Z,1.40
2023-02-02T01:56:53.117Z,1.57
2023-02-02T01:59:20.315Z,2.23
2023-02-02T02:01:47.798Z,2.00
2023-02-02T02:04:15.017Z,2.87
2023-02-02T02:06:42.803Z,2.90
2023-02-02T02:09:09.978Z,2.73
2023-02-02T02:11:37.216Z,2.47
2023-02-02T02:14:23.826Z,3.43
2023-02-02T02:17:11.619Z,2.27
2023-02-02T02:20:01.609Z,7.27
2023-02-02T02:22:53.503Z,3.60
2023-02-02T02:25:58.497Z,3.13
2023-02-02T02:28:31.498Z,1.60
2023-02-02T02:31:10.903Z,2.40
2023-02-02T02:33:44.250Z,4.53
2023-02-02T02:36:34.481Z,2.10
2023-02-02T02:39:07.471Z,2.50
2023-02-02T02:41:35.618Z,5.40
2023-02-02T02:44:07.755Z,7.23
2023-02-02T02:46:34.958Z,16.57
2023-02-02T02:49:02.146Z,5.33
2023-02-02T02:51:48.900Z,8.50
2023-02-02T02:54:23.234Z,7.60
2023-02-02T02:56:50.349Z,5.30
2023-02-02T02:59:21.532Z,4.00
2023-02-02T03:02:08.924Z,6.07
2023-02-02T03:04:40.675Z,3.87
2023-02-02T03:07:08.900Z,5.57
2023-02-02T03:09:36.947Z,5.50
2023-02-02T03:12:04.102Z,5.27
2023-02-02T03:14:35.198Z,5.70
2023-02-02T03:17:02.311Z,3.77
2023-02-02T03:19:29.409Z,7.97
2023-02-02T03:21:56.620Z,4.97
2023-02-02T03:24:23.781Z,6.40
2023-02-02T03:26:50.932Z,5.83
2023-02-02T03:29:18.227Z,9.10
2023-02-02T03:31:45.402Z,4.70
2023-02-02T03:34:12.540Z,7.47
2023-02-02T03:36:39.695Z,5.90
2023-02-02T03:39:06.853Z,6.33
2023-02-02T03:41:33.961Z,9.40
2023-02-02T03:44:01.146Z,5.83
2023-02-02T03:46:28.313Z,8.57
2023-02-02T03:48:55.470Z,6.43
2023-02-02T03:51:22.638Z,6.37
2023-02-02T03:53:49.733Z,4.17
2023-02-02T03:56:17.185Z,9.93
2023-02-02T03:58:46.398Z,9.30
2023-02-02T04:01:14.601Z,7.43
2023-02-02T04:03:41.849Z,6.23
2023-02-02T04:06:09.066Z,4.33
2023-02-02T04:08:36.250Z,5.60
2023-02-02T04:11:03.453Z,4.53
2023-02-02T04:13:30.933Z,6.73
2023-02-02T04:16:01.194Z,4.30
2023-02-02T04:18:28.591Z,7.70
2023-02-02T04:20:59.413Z,6.13
2023-02-02T04:23:26.578Z,18.43
2023-02-02T04:25:53.744Z,7.87
2023-02-02T04:28:20.962Z,5.23
2023-02-02T04:30:48.087Z,5.03
2023-02-02T04:33:15.223Z,9.37
2023-02-02T04:35:43.270Z,7.63
2023-02-02T04:38:10.409Z,9.23
2023-02-02T04:40:40.756Z,6.17
2023-02-02T04:43:08.198Z,4.27
2023-02-02T04:45:35.522Z,4.33
2023-02-02T04:48:02.689Z,7.37
2023-02-02T04:50:30.096Z,12.80
2023-02-02T04:52:57.245Z,9.90
2023-02-02T04:55:24.726Z,19.53
2023-02-02T04:57:52.090Z,8.97
2023-02-02T05:00:19.387Z,11.47
2023-02-02T05:02:46.510Z,10.40
2023-02-02T05:05:14.129Z,21.17
2023-02-02T05:07:41.355Z,18.13
2023-02-02T05:10:08.974Z,10.97
2023-02-02T05:12:36.110Z,12.10
2023-02-02T05:15:05.247Z,8.83
2023-02-02T05:17:32.534Z,11.57
2023-02-02T05:19:59.700Z,11.97
2023-02-02T05:22:27.063Z,16.33
2023-02-02T05:24:54.185Z,13.97
2023-02-02T05:27:21.369Z,14.40
2023-02-02T05:29:48.612Z,11.73
2023-02-02T05:32:15.739Z,9.27
2023-02-02T05:34:42.932Z,11.07
2023-02-02T05:37:10.066Z,6.63
2023-02-02T05:39:37.243Z,5.63
2023-02-02T05:42:04.444Z,10.80
2023-02-02T05:44:31.583Z,10.33
2023-02-02T05:46:58.714Z,3.83
2023-02-02T05:49:25.886Z,9.63
2023-02-02T05:51:54.261Z,11.13
2023-02-02T05:54:21.452Z,8.50
2023-02-02T05:56:48.801Z,6.67
2023-02-02T05:59:17.393Z,4.90
2023-02-02T06:01:45.297Z,9.53
2023-02-02T06:04:12.516Z,5.27
2023-02-02T06:06:39.912Z,6.23
2023-02-02T06:09:07.169Z,5.57
2023-02-02T06:11:34.409Z,6.90
2023-02-02T06:14:01.670Z,4.20
2023-02-02T06:16:28.820Z,5.60
2023-02-02T06:18:56.031Z,8.63
2023-02-02T06:21:24.732Z,13.83
2023-02-02T06:23:52.019Z,10.37
2023-02-02T06:26:19.383Z,13.13
2023-02-02T06:28:49.360Z,20.53
2023-02-02T06:31:19.759Z,33.07
2023-02-02T06:33:47.394Z,29.87
2023-02-02T06:36:14.546Z,16.87
2023-02-02T06:38:41.713Z,10.93
2023-02-02T06:41:08.828Z,4.97
2023-02-02T06:43:35.947Z,6.30
2023-02-02T06:46:03.220Z,7.83
2023-02-02T06:48:30.370Z,3.17
2023-02-02T06:51:00.454Z,4.20
2023-02-02T06:53:27.826Z,6.53
2023-02-02T06:55:58.378Z,7.13
2023-02-02T06:58:25.513Z,4.07
2023-02-02T07:00:52.711Z,7.07
2023-02-02T07:03:21.411Z,16.20
2023-02-02T07:05:51.332Z,24.37
2023-02-02T07:08:18.536Z,24.30
2023-02-02T07:11:13.278Z,9.30
2023-02-02T07:13:32.923Z,22.23
2023-02-02T07:16:00.371Z,16.43
2023-02-02T07:18:27.623Z,14.90
2023-02-02T07:20:54.774Z,14.87
2023-02-02T07:23:21.908Z,11.87
2023-02-02T07:25:49.049Z,17.37
2023-02-02T07:28:16.214Z,13.63
2023-02-02T07:30:43.408Z,12.20
2023-02-02T07:33:10.633Z,5.67
2023-02-02T07:35:37.827Z,12.90
2023-02-02T07:38:05.002Z,14.50
2023-02-02T07:40:32.118Z,15.30
2023-02-02T07:43:01.034Z,32.83
2023-02-02T07:45:28.355Z,28.87
2023-02-02T07:47:58.998Z,38.47
2023-02-02T07:50:26.168Z,50.33
2023-02-02T07:52:53.607Z,34.53
2023-02-02T07:55:20.816Z,28.30
2023-02-02T07:57:47.997Z,49.83
2023-02-02T08:00:15.265Z,19.53
2023-02-02T08:02:42.459Z,23.13
2023-02-02T08:05:10.003Z,9.57
2023-02-02T08:07:37.190Z,8.93
2023-02-02T08:10:04.518Z,6.33
2023-02-02T08:12:31.681Z,5.60
2023-02-02T08:14:59.119Z,9.17
2023-02-02T08:17:26.263Z,9.10
2023-02-02T08:19:53.422Z,10.97
2023-02-02T08:22:20.590Z,9.50
2023-02-02T08:24:48.067Z,8.53
2023-02-02T08:27:16.172Z,12.43
2023-02-02T08:29:43.327Z,13.67
2023-02-02T08:32:10.456Z,12.17
2023-02-02T08:34:37.805Z,13.83
2023-02-02T08:37:05.024Z,15.63
2023-02-02T08:39:32.147Z,17.60
2023-02-02T08:41:59.360Z,13.17
2023-02-02T08:44:26.923Z,10.57
2023-02-02T08:47:12.711Z,12.10
2023-02-02T08:49:42.383Z,9.77
2023-02-02T08:52:09.508Z,11.43
2023-02-02T08:54:36.660Z,12.40
2023-02-02T08:57:03.808Z,8.83
2023-02-02T08:59:30.915Z,9.27
2023-02-02T09:01:58.106Z,19.67
2023-02-02T09:04:25.336Z,26.80
2023-02-02T09:06:52.472Z,18.03
2023-02-02T09:09:19.634Z,22.07
2023-02-02T09:11:46.783Z,17.80
2023-02-02T09:14:14.162Z,30.53
2023-02-02T09:16:41.405Z,35.57
2023-02-02T09:19:08.989Z,13.57
2023-02-02T09:21:37.219Z,13.33
2023-02-02T09:24:08.438Z,9.43
2023-02-02T09:26:35.620Z,6.53
2023-02-02T09:29:03.528Z,5.00
2023-02-02T09:31:34.353Z,7.70
2023-02-02T09:34:05.090Z,11.00
2023-02-02T09:36:32.322Z,15.10
2023-02-02T09:38:59.680Z,11.30
2023-02-02T09:41:26.815Z,8.03
2023-02-02T09:44:12.479Z,10.63
2023-02-02T09:46:45.720Z,9.80
2023-02-02T09:49:14.180Z,8.40
2023-02-02T09:51:42.539Z,7.53
2023-02-02T09:54:19.540Z,7.97
2023-02-02T09:56:50.682Z,9.07
2023-02-02T09:59:24.224Z,7.90
2023-02-02T10:01:53.846Z,10.23
2023-02-02T10:04:26.790Z,9.13
2023-02-02T10:06:54.911Z,5.00
2023-02-02T10:09:26.115Z,6.83
2023-02-02T10:11:56.283Z,9.50
2023-02-02T10:14:27.870Z,8.43
2023-02-02T10:16:55.556Z,7.67
2023-02-02T10:19:25.374Z,10.17
2023-02-02T10:21:53.059Z,9.50
2023-02-02T10:24:21.145Z,8.97
2023-02-02T10:26:52.727Z,8.23
2023-02-02T10:29:27.228Z,11.47
2023-02-02T10:32:14.409Z,11.40
2023-02-02T10:34:45.694Z,7.80
2023-02-02T10:37:16.288Z,8.10
2023-02-02T10:40:02.287Z,5.93
2023-02-02T10:42:35.462Z,7.07
2023-02-02T10:45:11.625Z,5.77
2023-02-02T10:47:38.988Z,6.37
2023-02-02T10:50:15.011Z,5.50
2023-02-02T10:52:44.639Z,9.47
2023-02-02T10:55:15.874Z,3.07
2023-02-02T10:57:52.140Z,4.40
2023-02-02T11:00:22.865Z,4.27
2023-02-02T11:02:50.883Z,4.93
2023-02-02T11:05:38.819Z,6.43
2023-02-02T11:08:13.467Z,5.50
2023-02-02T11:10:40.729Z,5.37
2023-02-02T11:13:08.232Z,5.40
2023-02-02T11:15:35.405Z,8.60
2023-02-02T11:18:16.144Z,8.93
2023-02-02T11:20:45.418Z,9.57
2023-02-02T11:23:15.764Z,3.90
2023-02-02T11:25:43.039Z,9.43
2023-02-02T11:28:18.807Z,8.13
2023-02-02T11:30:50.561Z,6.87
2023-02-02T11:33:29.966Z,7.10
2023-02-02T11:36:00.805Z,7.90
2023-02-02T11:38:28.103Z,9.63
2023-02-02T11:40:55.217Z,7.33
2023-02-02T11:43:36.167Z,9.13
2023-02-02T11:46:04.346Z,8.17
2023-02-02T11:48:35.802Z,6.97
2023-02-02T11:51:03.062Z,5.80
2023-02-02T11:53:31.361Z,9.50
2023-02-02T11:56:00.319Z,7.20
2023-02-02T11:58:28.337Z,5.23
2023-02-02T12:00:56.744Z,6.20
2023-02-02T12:03:24.799Z,3.53
2023-02-02T12:05:52.019Z,5.40
2023-02-02T12:08:20.330Z,4.63
2023-02-02T12:10:47.601Z,7.33
2023-02-02T12:13:24.270Z,5.17
2023-02-02T12:15:57.268Z,9.10
2023-02-02T12:18:27.454Z,8.93
2023-02-02T12:20:59.471Z,2.90
2023-02-02T12:23:46.454Z,5.40
2023-02-02T12:26:35.175Z,3.90
2023-02-02T12:29:18.758Z,5.57
2023-02-02T12:31:45.933Z,4.70
2023-02-02T12:34:25.343Z,6.37
2023-02-02T12:36:55.259Z,5.57
2023-02-02T12:39:22.564Z,7.80
2023-02-02T12:41:49.850Z,12.20
2023-02-02T12:44:19.449Z,10.03
2023-02-02T12:46:46.602Z,6.90
2023-02-02T12:49:33.507Z,7.70
2023-02-02T12:52:06.771Z,6.73
2023-02-02T12:54:45.138Z,6.50
2023-02-02T12:57:32.278Z,3.60
2023-02-02T13:00:12.769Z,8.07
2023-02-02T13:02:45.526Z,4.40
2023-02-02T13:05:15.792Z,2.27
2023-02-02T13:07:53.611Z,14.93
2023-02-02T13:10:24.648Z,4.33
2023-02-02T13:12:55.987Z,4.00
2023-02-02T13:15:24.273Z,11.20
2023-02-02T13:17:51.541Z,14.47
2023-02-02T13:20:26.689Z,14.03
2023-02-02T13:22:55.236Z,12.30
2023-02-02T13:25:45.629Z,8.30
2023-02-02T13:28:17.510Z,15.37
2023-02-02T13:30:44.771Z,19.37
2023-02-02T13:33:16.889Z,17.40
2023-02-02T13:35:50.812Z,12.00
2023-02-02T13:38:21.084Z,15.13
2023-02-02T13:40:48.384Z,13.03
2023-02-02T13:43:24.889Z,59.90
2023-02-02T13:45:54.815Z,49.23
2023-02-02T13:48:22.017Z,9.97
2023-02-02T13:51:07.368Z,6.37
2023-02-02T13:53:40.537Z,15.37
2023-02-02T13:56:15.223Z,13.70
2023-02-02T13:58:48.752Z,7.50
2023-02-02T14:01:16.467Z,16.30
2023-02-02T14:03:44.351Z,6.60
2023-02-02T14:06:24.040Z,16.97
2023-02-02T14:08:56.973Z,12.67
2023-02-02T14:11:31.047Z,18.57
2023-02-02T14:14:25.624Z,8.60
2023-02-02T14:16:53.426Z,3.93
2023-02-02T14:19:29.986Z,6.03
2023-02-02T14:22:00.445Z,3.17
2023-02-02T14:24:27.607Z,2.03
2023-02-02T14:26:58.470Z,8.30
2023-02-02T14:29:31.710Z,7.13
2023-02-02T14:32:08.146Z,14.43
2023-02-02T14:34:39.467Z,23.90
2023-02-02T14:37:09.685Z,7.17
2023-02-02T14:39:38.121Z,7.00
2023-02-02T14:42:34.164Z,24.70
2023-02-02T14:45:13.256Z,47.67
2023-02-02T14:47:48.228Z,59.73
2023-02-02T14:50:26.054Z,28.67
2023-02-02T14:53:00.817Z,19.53
2023-02-02T14:55:28.357Z,25.60
2023-02-02T14:58:02.320Z,80.80
2023-02-02T15:00:33.301Z,75.40
2023-02-02T15:03:20.815Z,60.30
2023-02-02T15:05:48.891Z,17.07
2023-02-02T15:08:23.708Z,19.43
2023-02-02T15:10:54.035Z,22.27
2023-02-02T15:13:37.465Z,23.00
2023-02-02T15:16:10.947Z,6.73
2023-02-02T15:18:45.047Z,19.83
2023-02-02T15:21:13.727Z,21.67
2023-02-02T15:23:45.045Z,36.13
2023-02-02T15:26:18.342Z,32.20
2023-02-02T15:28:50.015Z,23.33
2023-02-02T15:31:28.975Z,23.67
2023-02-02T15:34:01.077Z,9.07
2023-02-02T15:36:29.271Z,18.70
2023-02-02T15:38:57.340Z,16.27
2023-02-02T15:41:25.241Z,20.93
2023-02-02T15:43:53.283Z,21.40
2023-02-02T15:46:30.337Z,18.60
2023-02-02T15:49:32.837Z,21.17
2023-02-02T15:52:01.953Z,11.60
2023-02-02T15:54:32.614Z,10.47
2023-02-02T15:57:02.981Z,18.07
2023-02-02T15:59:30.930Z,18.50
2023-02-02T16:02:05.535Z,20.17
2023-02-02T16:04:37.206Z,16.67
2023-02-02T16:07:05.093Z,22.67
2023-02-02T16:09:34.116Z,31.27
2023-02-02T16:12:01.913Z,30.23
2023-02-02T16:14:29.051Z,21.40
2023-02-02T16:16:56.215Z,23.97
2023-02-02T16:19:26.774Z,22.73
2023-02-02T16:21:57.425Z,22.57
2023-02-02T16:24:28.812Z,28.17
2023-02-02T16:26:56.356Z,29.10
2023-02-02T16:29:23.591Z,24.47
2023-02-02T16:31:51.010Z,22.03
2023-02-02T16:34:19.076Z,157.17
2023-02-02T16:37:04.315Z,59.87
2023-02-02T16:39:31.454Z,40.87
2023-02-02T16:42:08.678Z,33.40
2023-02-02T16:44:39.919Z,45.30
2023-02-02T16:47:07.981Z,21.17
2023-02-02T16:49:35.195Z,23.03
2023-02-02T16:52:08.507Z,24.37
2023-02-02T16:54:35.708Z,39.40
2023-02-02T16:57:03.178Z,17.97
2023-02-02T16:59:33.422Z,21.37
2023-02-02T17:02:01.693Z,11.53
2023-02-02T17:04:29.618Z,14.10
2023-02-02T17:06:57.819Z,18.97
2023-02-02T17:09:24.967Z,65.40
2023-02-02T17:11:59.068Z,72.17
2023-02-02T17:14:30.478Z,51.83
2023-02-02T17:16:57.711Z,91.27
2023-02-02T17:19:24.887Z,193.33
2023-02-02T17:21:52.031Z,200.53
2023-02-02T17:24:19.167Z,208.67
2023-02-02T17:26:48.147Z,133.63
2023-02-02T17:29:19.054Z,42.33
2023-02-02T17:31:46.256Z,44.50
2023-02-02T17:34:16.709Z,53.43
2023-02-02T17:36:44.144Z,36.83
2023-02-02T17:39:11.739Z,121.23
2023-02-02T17:41:39.241Z,26.63
2023-02-02T17:44:06.933Z,37.43
2023-02-02T17:46:35.084Z,26.73
2023-02-02T17:49:02.350Z,29.03
2023-02-02T17:51:30.795Z,97.17
2023-02-02T17:54:00.392Z,78.43
2023-02-02T17:56:27.660Z,118.27
2023-02-02T17:58:54.853Z,100.47
2023-02-02T18:01:22.049Z,68.83
2023-02-02T18:03:49.478Z,57.30
2023-02-02T18:06:16.651Z,27.70
2023-02-02T18:08:45.606Z,25.67
2023-02-02T18:11:13.525Z,25.87
2023-02-02T18:13:44.327Z,23.40
2023-02-02T18:16:11.669Z,31.63
2023-02-02T18:18:39.114Z,35.70
2023-02-02T18:21:10.041Z,31.70
2023-02-02T18:23:37.581Z,29.97
2023-02-02T18:26:14.632Z,19.30
2023-02-02T18:28:41.819Z,14.93
2023-02-02T18:31:12.365Z,11.70
2023-02-02T18:33:41.488Z,19.60
2023-02-02T18:36:10.716Z,50.90
2023-02-02T18:38:38.160Z,22.20
2023-02-02T18:41:05.606Z,20.37
2023-02-02T18:43:32.795Z,24.53
2023-02-02T18:46:04.594Z,48.73
2023-02-02T18:48:31.939Z,43.23
2023-02-02T18:50:59.307Z,30.93
2023-02-02T18:53:28.571Z,19.27
2023-02-02T18:55:55.771Z,12.40
2023-02-02T18:58:22.939Z,12.03
2023-02-02T19:00:50.194Z,21.40
2023-02-02T19:03:17.395Z,12.70
2023-02-02T19:06:03.256Z,11.57
2023-02-02T19:08:31.503Z,12.73
2023-02-02T19:11:01.036Z,13.03
2023-02-02T19:13:28.684Z,15.63
2023-02-02T19:15:55.904Z,19.33
2023-02-02T19:18:24.169Z,10.00
2023-02-02T19:20:51.513Z,7.83
2023-02-02T19:23:25.479Z,13.07
2023-02-02T19:25:54.150Z,11.13
2023-02-02T19:28:31.131Z,10.70
2023-02-02T19:30:59.158Z,22.73
2023-02-02T19:33:42.757Z,14.57
2023-02-02T19:36:22.903Z,13.27
2023-02-02T19:38:50.772Z,16.07
2023-02-02T19:41:19.483Z,16.30
2023-02-02T19:43:47.822Z,13.03
2023-02-02T19:46:20.780Z,17.93
2023-02-02T19:48:50.560Z,9.93
2023-02-02T19:51:27.006Z,7.70
2023-02-02T19:53:54.357Z,5.87
2023-02-02T19:56:24.041Z,10.20
2023-02-02T19:58:51.230Z,7.70
2023-02-02T20:01:19.820Z,11.20
2023-02-02T20:03:47.176Z,9.10
2023-02-02T20:06:20.120Z,8.93
2023-02-02T20:08:47.268Z,5.67
2023-02-02T20:11:32.451Z,6.23
2023-02-02T20:14:00.565Z,14.30
2023-02-02T20:16:29.675Z,9.70
2023-02-02T20:18:57.214Z,7.03
2023-02-02T20:21:27.394Z,7.50
2023-02-02T20:23:54.496Z,13.97
2023-02-02T20:26:23.160Z,11.37
2023-02-02T20:28:50.580Z,12.23
2023-02-02T20:31:19.092Z,11.43
2023-02-02T20:33:55.731Z,16.43
2023-02-02T20:36:27.995Z,12.13
2023-02-02T20:38:55.124Z,14.17
2023-02-02T20:41:22.297Z,9.77
2023-02-02T20:43:49.406Z,9.90
2023-02-02T20:46:16.519Z,21.23
2023-02-02T20:48:43.745Z,22.50
2023-02-02T20:51:10.862Z,18.07
2023-02-02T20:53:39.536Z,74.23
2023-02-02T20:56:06.950Z,37.00
2023-02-02T20:58:34.060Z,73.83
2023-02-02T21:01:05.282Z,92.50
2023-02-02T21:03:32.926Z,64.63
2023-02-02T21:06:00.159Z,45.23
2023-02-02T21:08:27.278Z,33.83
2023-02-02T21:10:54.475Z,102.20
2023-02-02T21:13:21.721Z,20.17
2023-02-02T21:15:48.836Z,35.97
2023-02-02T21:18:16.013Z,28.10
2023-02-02T21:20:43.183Z,28.30
2023-02-02T21:23:10.296Z,21.63
2023-02-02T21:25:37.513Z,23.33
2023-02-02T21:28:04.744Z,19.27
2023-02-02T21:30:32.304Z,49.73
2023-02-02T21:32:59.700Z,16.03
2023-02-02T21:35:26.979Z,22.37
2023-02-02T21:37:56.014Z,18.20
2023-02-02T21:40:27.888Z,26.47
2023-02-02T21:42:55.134Z,21.57
2023-02-02T21:45:49.416Z,23.60
2023-02-02T21:48:22.536Z,23.17
2023-02-02T21:50:49.691Z,9.93
2023-02-02T21:53:20.817Z,14.07
2023-02-02T21:55:52.298Z,10.27
2023-02-02T21:58:29.635Z,11.20
2023-02-02T22:01:00.794Z,6.77
2023-02-02T22:03:40.386Z,7.57
2023-02-02T22:06:18.598Z,11.30
2023-02-02T22:08:45.727Z,9.17
2023-02-02T22:11:23.365Z,6.37
2023-02-02T22:13:50.639Z,10.37
2023-02-02T22:16:18.622Z,11.67
2023-02-02T22:18:45.829Z,8.90
2023-02-02T22:21:13.313Z,11.97
2023-02-02T22:23:40.439Z,8.07
2023-02-02T22:26:09.342Z,7.47
2023-02-02T22:28:39.971Z,8.00
2023-02-02T22:31:07.199Z,8.00
2023-02-02T22:33:34.424Z,7.83
2023-02-02T22:36:02.859Z,8.33
2023-02-02T22:38:30.025Z,9.37
2023-02-02T22:40:57.339Z,8.20
2023-02-02T22:43:24.472Z,6.77
2023-02-02T22:45:51.605Z,8.63
2023-02-02T22:48:18.905Z,5.37
2023-02-02T22:50:46.107Z,8.50
2023-02-02T22:53:15.330Z,13.77
2023-02-02T22:55:43.486Z,5.13
2023-02-02T22:58:10.629Z,7.90
2023-02-02T23:00:37.870Z,5.27
2023-02-02T23:03:05.124Z,9.70
2023-02-02T23:05:32.355Z,7.63
2023-02-02T23:07:59.472Z,6.37
2023-02-02T23:10:27.715Z,5.17
2023-02-02T23:12:58.556Z,6.70
2023-02-02T23:15:25.898Z,6.80
2023-02-02T23:17:53.068Z,4.20
2023-02-02T23:20:20.355Z,4.73
2023-02-02T23:22:47.491Z,9.83
2023-02-02T23:25:14.849Z,11.10
2023-02-02T23:27:42.211Z,9.20
2023-02-02T23:30:09.836Z,9.80
2023-02-02T23:32:37.035Z,12.33
2023-02-02T23:35:04.482Z,5.63
2023-02-02T23:37:31.593Z,11.97
2023-02-02T23:39:58.792Z,6.67
2023-02-02T23:42:25.948Z,8.13
2023-02-02T23:44:53.236Z,7.60
2023-02-02T23:47:20.398Z,7.63
2023-02-02T23:49:47.671Z,5.83
2023-02-02T23:52:14.858Z,7.87
2023-02-02T23:54:42.056Z,6.67
2023-02-02T23:57:09.276Z,6.47
2023-02-02T23:59:36.433Z,6.47
